createdAt,value
2022-11-19T00:01:11.898Z,7.08
2022-11-19T00:03:40.240Z,7.05
2022-11-19T00:06:18.239Z,7.08
2022-11-19T00:08:45.562Z,7.04
2022-11-19T00:11:13.198Z,7.05
2022-11-19T00:13:41.141Z,7.06
2022-11-19T00:16:10.590Z,7.03
2022-11-19T00:18:38.526Z,7.05
2022-11-19T00:21:07.364Z,7.01
2022-11-19T00:23:34.177Z,7.08
2022-11-19T00:26:05.975Z,7.06
2022-11-19T00:28:32.760Z,7.04
2022-11-19T00:31:04.404Z,7.03
2022-11-19T00:33:31.373Z,7.03
2022-11-19T00:35:59.402Z,7.04
2022-11-19T00:38:26.173Z,7.11
2022-11-19T00:40:53.151Z,7.06
2022-11-19T00:43:38.504Z,7.09
2022-11-19T00:46:05.919Z,7.06
2022-11-19T00:48:32.547Z,7.06
2022-11-19T00:50:58.932Z,6.92
2022-11-19T00:53:25.472Z,7.02
2022-11-19T00:55:51.961Z,7.03
2022-11-19T00:58:19.367Z,7.00
2022-11-19T01:00:46.765Z,7.02
2022-11-19T01:03:13.324Z,6.98
2022-11-19T01:05:39.767Z,6.97
2022-11-19T01:08:06.170Z,6.98
2022-11-19T01:10:34.686Z,6.99
2022-11-19T01:13:20.186Z,6.98
2022-11-19T01:15:49.991Z,7.01
2022-11-19T01:18:17.804Z,7.02
2022-11-19T01:20:45.084Z,6.98
2022-11-19T01:23:11.799Z,7.00
2022-11-19T01:25:38.788Z,6.98
2022-11-19T01:28:06.114Z,7.06
2022-11-19T01:30:33.307Z,6.99
2022-11-19T01:32:59.978Z,7.01
2022-11-19T01:35:26.405Z,6.96
2022-11-19T01:37:53.746Z,6.95
2022-11-19T01:40:20.158Z,6.97
2022-11-19T01:42:49.409Z,7.01
2022-11-19T01:45:35.605Z,6.95
2022-11-19T01:48:22.456Z,7.01
2022-11-19T01:50:57.046Z,7.02
2022-11-19T01:53:29.350Z,7.04
2022-11-19T01:55:59.486Z,7.01
2022-11-19T01:58:26.176Z,7.07
2022-11-19T02:00:52.752Z,6.93
2022-11-19T02:03:19.368Z,6.91
2022-11-19T02:05:46.435Z,6.98
2022-11-19T02:08:36.717Z,7.05
2022-11-19T02:11:18.648Z,7.01
2022-11-19T02:13:54.636Z,7.03
2022-11-19T02:16:32.905Z,6.90
2022-11-19T02:19:41.176Z,6.79
2022-11-19T02:22:26.500Z,6.93
2022-11-19T02:24:55.699Z,6.82
2022-11-19T02:27:50.669Z,6.84
2022-11-19T02:30:19.211Z,6.82
2022-11-19T02:33:00.720Z,6.90
2022-11-19T02:35:40.375Z,6.85
2022-11-19T02:38:41.225Z,6.88
2022-11-19T02:41:31.563Z,6.81
2022-11-19T02:44:26.857Z,6.52
2022-11-19T02:46:54.951Z,6.30
2022-11-19T02:49:25.843Z,6.09
2022-11-19T02:51:52.547Z,6.01
2022-11-19T02:54:19.069Z,6.01
2022-11-19T02:56:52.999Z,5.90
2022-11-19T02:59:52.631Z,5.98
2022-11-19T03:02:40.730Z,5.89
2022-11-19T03:05:11.496Z,5.73
2022-11-19T03:07:38.310Z,5.69
2022-11-19T03:10:08.688Z,5.79
2022-11-19T03:12:41.177Z,5.62
2022-11-19T03:15:45.027Z,5.61
2022-11-19T03:18:31.453Z,5.58
2022-11-19T03:21:10.064Z,5.58
2022-11-19T03:23:48.522Z,5.50
2022-11-19T03:26:29.759Z,5.42
2022-11-19T03:29:00.726Z,5.31
2022-11-19T03:31:30.617Z,5.29
2022-11-19T03:34:07.535Z,5.36
2022-11-19T03:36:37.716Z,5.10
2022-11-19T03:39:09.115Z,4.96
2022-11-19T03:41:38.600Z,4.91
2022-11-19T03:44:11.527Z,4.87
2022-11-19T03:46:39.877Z,4.91
2022-11-19T03:49:08.211Z,4.80
2022-11-19T03:51:52.069Z,4.71
2022-11-19T03:54:18.637Z,4.74
2022-11-19T03:56:46.882Z,4.74
2022-11-19T03:59:13.691Z,4.61
2022-11-19T04:01:43.420Z,4.56
2022-11-19T04:04:28.929Z,4.41
2022-11-19T04:06:55.392Z,4.35
2022-11-19T04:09:22.242Z,4.37
2022-11-19T04:14:14.251Z,4.44
2022-11-19T04:16:40.643Z,4.32
2022-11-19T04:19:07.314Z,4.23
2022-11-19T04:21:33.734Z,4.20
2022-11-19T04:24:00.376Z,4.05
2022-11-19T04:26:26.801Z,3.96
2022-11-19T04:28:53.397Z,3.92
2022-11-19T04:31:19.939Z,3.86
2022-11-19T04:33:46.516Z,3.87
2022-11-19T04:36:12.960Z,3.97
2022-11-19T04:38:39.643Z,3.93
2022-11-19T04:41:06.144Z,3.83
2022-11-19T04:43:33.931Z,3.82
2022-11-19T04:46:00.355Z,3.81
2022-11-19T04:48:26.797Z,3.88
2022-11-19T04:50:53.471Z,3.81
2022-11-19T04:53:20.198Z,3.87
2022-11-19T04:55:46.783Z,3.68
2022-11-19T04:58:13.204Z,3.81
2022-11-19T05:00:41.079Z,3.62
2022-11-19T05:03:07.596Z,3.61
2022-11-19T05:05:34.229Z,3.56
2022-11-19T05:08:00.632Z,3.53
2022-11-19T05:10:27.180Z,3.48
2022-11-19T05:12:53.576Z,3.45
2022-11-19T05:15:20.086Z,3.45
2022-11-19T05:17:46.571Z,3.33
2022-11-19T05:20:14.300Z,3.34
2022-11-19T05:22:40.685Z,3.34
2022-11-19T05:25:07.580Z,3.40
2022-11-19T05:27:34.060Z,3.44
2022-11-19T05:30:00.775Z,3.60
2022-11-19T05:32:27.208Z,3.49
2022-11-19T05:34:53.790Z,3.46
2022-11-19T05:37:20.153Z,3.47
2022-11-19T05:39:46.663Z,3.41
2022-11-19T05:42:13.135Z,3.51
2022-11-19T05:44:40.659Z,3.56
2022-11-19T05:47:07.241Z,3.42
2022-11-19T05:49:33.581Z,3.46
2022-11-19T05:52:00.087Z,3.27
2022-11-19T05:54:26.650Z,3.14
2022-11-19T05:56:53.269Z,3.24
2022-11-19T05:59:21.017Z,3.30
2022-11-19T06:01:48.812Z,3.24
2022-11-19T06:04:15.453Z,3.25
2022-11-19T06:06:42.010Z,3.46
2022-11-19T06:09:08.768Z,3.30
2022-11-19T06:11:51.041Z,3.24
2022-11-19T06:14:22.709Z,3.41
2022-11-19T06:16:53.980Z,3.35
2022-11-19T06:19:21.335Z,3.31
2022-11-19T06:21:48.771Z,3.35
2022-11-19T06:24:15.425Z,3.25
2022-11-19T06:26:42.050Z,3.23
2022-11-19T06:29:08.578Z,3.20
2022-11-19T06:31:35.196Z,3.12
2022-11-19T06:34:01.915Z,3.16
2022-11-19T06:36:35.946Z,3.21
2022-11-19T06:39:05.617Z,3.05
2022-11-19T06:41:32.357Z,3.06
2022-11-19T06:43:58.877Z,3.00
2022-11-19T06:46:25.338Z,3.08
2022-11-19T06:48:51.781Z,3.09
2022-11-19T06:51:18.385Z,3.08
2022-11-19T06:53:44.929Z,3.09
2022-11-19T06:56:11.546Z,3.04
2022-11-19T06:58:37.989Z,3.07
2022-11-19T07:01:04.585Z,3.18
2022-11-19T07:03:31.144Z,3.18
2022-11-19T07:06:00.034Z,3.23
2022-11-19T07:08:26.531Z,3.31
2022-11-19T07:10:53.104Z,3.20
2022-11-19T07:13:19.627Z,3.29
2022-11-19T07:15:46.093Z,3.22
2022-11-19T07:18:13.083Z,3.34
2022-11-19T07:20:39.490Z,3.32
2022-11-19T07:23:10.511Z,3.29
2022-11-19T07:25:37.644Z,3.27
2022-11-19T07:28:04.248Z,3.27
2022-11-19T07:30:31.379Z,3.31
2022-11-19T07:32:58.164Z,3.24
2022-11-19T07:35:24.895Z,3.27
2022-11-19T07:37:51.314Z,3.34
2022-11-19T07:40:17.893Z,3.31
2022-11-19T07:42:50.458Z,3.28
2022-11-19T07:45:22.004Z,3.36
2022-11-19T07:47:48.940Z,3.32
2022-11-19T07:50:17.202Z,3.28
2022-11-19T07:52:43.935Z,3.30
2022-11-19T07:55:10.720Z,3.22
2022-11-19T07:57:37.332Z,3.19
2022-11-19T08:00:05.913Z,3.08
2022-11-19T08:02:33.023Z,2.78
2022-11-19T08:04:59.558Z,2.74
2022-11-19T08:07:26.142Z,2.83
2022-11-19T08:09:52.551Z,2.93
2022-11-19T08:12:19.155Z,2.90
2022-11-19T08:14:45.554Z,3.04
2022-11-19T08:17:30.908Z,3.11
2022-11-19T08:19:57.412Z,3.14
2022-11-19T08:22:23.831Z,3.22
2022-11-19T08:24:51.375Z,3.20
2022-11-19T08:27:18.472Z,3.23
2022-11-19T08:29:45.052Z,3.05
2022-11-19T08:32:11.464Z,3.05
2022-11-19T08:34:38.006Z,2.99
2022-11-19T08:37:04.400Z,2.92
2022-11-19T08:39:31.027Z,2.85
2022-11-19T08:42:16.546Z,2.88
2022-11-19T08:44:42.835Z,2.79
2022-11-19T08:47:09.248Z,2.84
2022-11-19T08:49:35.890Z,2.81
2022-11-19T08:52:02.289Z,2.92
2022-11-19T08:54:28.805Z,2.92
2022-11-19T08:56:55.186Z,3.13
2022-11-19T08:59:22.245Z,3.07
2022-11-19T09:01:50.311Z,3.08
2022-11-19T09:04:17.483Z,3.00
2022-11-19T09:06:44.103Z,3.18
2022-11-19T09:09:10.626Z,3.15
2022-11-19T09:11:41.350Z,3.19
2022-11-19T09:14:09.458Z,3.12
2022-11-19T09:16:35.970Z,3.27
2022-11-19T09:19:03.561Z,3.23
2022-11-19T09:21:29.974Z,3.38
2022-11-19T09:23:56.505Z,3.31
2022-11-19T09:26:22.907Z,3.41
2022-11-19T09:28:50.449Z,3.42
2022-11-19T09:31:19.613Z,3.52
2022-11-19T09:33:49.377Z,3.30
2022-11-19T09:36:16.093Z,3.33
2022-11-19T09:38:43.385Z,3.29
2022-11-19T09:41:25.676Z,3.40
2022-11-19T09:44:01.475Z,3.66
2022-11-19T09:47:14.178Z,3.62
2022-11-19T09:50:22.322Z,3.63
2022-11-19T09:52:51.691Z,3.77
2022-11-19T09:55:30.492Z,3.59
2022-11-19T09:57:58.696Z,3.66
2022-11-19T10:00:30.445Z,3.64
2022-11-19T10:02:59.042Z,3.77
2022-11-19T10:05:47.400Z,3.81
2022-11-19T10:08:44.180Z,3.73
2022-11-19T10:11:32.469Z,3.67
2022-11-19T10:14:10.582Z,3.68
2022-11-19T10:16:40.075Z,3.74
2022-11-19T10:19:25.587Z,3.77
2022-11-19T10:22:04.310Z,3.92
2022-11-19T10:24:45.181Z,3.78
2022-11-19T10:27:40.687Z,3.86
2022-11-19T10:30:16.298Z,3.75
2022-11-19T10:33:00.516Z,3.75
2022-11-19T10:35:40.608Z,3.79
2022-11-19T10:38:19.275Z,3.77
2022-11-19T10:41:00.094Z,3.57
2022-11-19T10:43:39.714Z,3.60
2022-11-19T10:46:10.801Z,3.73
2022-11-19T10:48:41.618Z,3.85
2022-11-19T10:51:16.018Z,3.72
2022-11-19T10:53:43.310Z,3.70
2022-11-19T10:56:16.278Z,3.70
2022-11-19T10:58:49.939Z,3.49
2022-11-19T11:01:28.496Z,3.64
2022-11-19T11:04:00.797Z,3.61
2022-11-19T11:06:27.353Z,3.63
2022-11-19T11:08:56.364Z,3.69
2022-11-19T11:11:50.782Z,3.71
2022-11-19T11:14:39.345Z,3.72
2022-11-19T11:17:18.426Z,3.85
2022-11-19T11:19:45.005Z,3.65
2022-11-19T11:22:11.665Z,3.65
2022-11-19T11:24:39.247Z,3.45
2022-11-19T11:27:28.028Z,3.46
2022-11-19T11:30:06.830Z,3.40
2022-11-19T11:32:36.425Z,3.25
2022-11-19T11:35:07.520Z,3.28
2022-11-19T11:37:35.728Z,3.34
2022-11-19T11:40:02.453Z,3.35
2022-11-19T11:42:29.595Z,3.47
2022-11-19T11:45:01.021Z,3.61
2022-11-19T11:47:35.906Z,3.61
2022-11-19T11:50:19.983Z,3.61
2022-11-19T11:52:49.579Z,3.73
2022-11-19T11:55:31.645Z,3.88
2022-11-19T11:58:03.558Z,3.89
2022-11-19T12:00:46.052Z,3.96
2022-11-19T12:03:20.673Z,3.98
2022-11-19T12:05:56.275Z,3.95
2022-11-19T12:08:27.020Z,3.92
2022-11-19T12:11:18.167Z,3.89
2022-11-19T12:14:11.343Z,3.94
2022-11-19T12:17:30.656Z,3.97
2022-11-19T12:19:57.133Z,4.13
2022-11-19T12:22:42.800Z,4.11
2022-11-19T12:25:25.173Z,4.13
2022-11-19T12:28:19.820Z,4.15
2022-11-19T12:31:00.508Z,4.28
2022-11-19T12:33:35.605Z,4.18
2022-11-19T12:36:20.805Z,3.80
2022-11-19T12:38:56.293Z,3.74
2022-11-19T12:41:50.647Z,3.73
2022-11-19T12:44:20.006Z,3.76
2022-11-19T12:47:11.276Z,3.80
2022-11-19T12:49:46.795Z,3.63
2022-11-19T12:52:39.852Z,3.69
2022-11-19T12:55:39.813Z,3.72
2022-11-19T12:58:25.734Z,3.82
2022-11-19T13:01:09.110Z,3.70
2022-11-19T13:03:44.795Z,3.64
2022-11-19T13:06:46.587Z,3.52
2022-11-19T13:09:25.518Z,3.61
2022-11-19T13:12:00.139Z,3.55
2022-11-19T13:14:50.731Z,3.54
2022-11-19T13:17:31.040Z,3.57
2022-11-19T13:20:17.846Z,3.53
2022-11-19T13:22:47.522Z,3.41
2022-11-19T13:25:22.152Z,3.49
2022-11-19T13:27:50.594Z,3.32
2022-11-19T13:30:19.791Z,3.47
2022-11-19T13:33:11.688Z,3.36
2022-11-19T13:35:41.828Z,3.38
2022-11-19T13:38:28.196Z,3.39
2022-11-19T13:41:12.976Z,3.25
2022-11-19T13:43:58.605Z,3.29
2022-11-19T13:46:43.475Z,3.25
2022-11-19T13:49:32.968Z,3.17
2022-11-19T13:52:06.532Z,3.26
2022-11-19T13:54:39.191Z,3.31
2022-11-19T13:57:08.252Z,3.41
2022-11-19T13:59:40.836Z,3.41
2022-11-19T14:02:27.164Z,3.25
2022-11-19T14:05:29.077Z,3.42
2022-11-19T14:08:18.680Z,3.23
2022-11-19T14:10:57.742Z,3.11
2022-11-19T14:13:52.882Z,3.10
2022-11-19T14:17:05.647Z,3.13
2022-11-19T14:20:07.493Z,3.16
2022-11-19T14:22:59.834Z,3.12
2022-11-19T14:26:07.133Z,3.17
2022-11-19T14:28:41.380Z,3.09
2022-11-19T14:31:08.179Z,3.06
2022-11-19T14:33:46.753Z,3.18
2022-11-19T14:36:18.955Z,3.22
2022-11-19T14:38:54.966Z,2.95
2022-11-19T14:41:34.742Z,2.98
2022-11-19T14:44:30.768Z,3.04
2022-11-19T14:47:25.289Z,3.09
2022-11-19T14:49:55.729Z,3.14
2022-11-19T14:52:29.380Z,3.10
2022-11-19T14:55:02.054Z,3.10
2022-11-19T14:57:32.970Z,3.06
2022-11-19T15:00:07.899Z,3.08
2022-11-19T15:02:39.635Z,3.09
2022-11-19T15:05:15.873Z,3.09
2022-11-19T15:07:49.016Z,3.21
2022-11-19T15:10:32.019Z,3.22
2022-11-19T15:13:20.377Z,3.08
2022-11-19T15:15:50.578Z,2.85
2022-11-19T15:18:41.320Z,2.89
2022-11-19T15:21:32.224Z,2.93
2022-11-19T15:24:29.443Z,3.03
2022-11-19T15:27:13.695Z,2.99
2022-11-19T15:30:00.977Z,2.96
2022-11-19T15:32:46.519Z,2.89
2022-11-19T15:35:15.595Z,2.87
2022-11-19T15:37:58.954Z,2.88
2022-11-19T15:40:30.509Z,2.88
2022-11-19T15:43:06.504Z,2.77
2022-11-19T15:45:39.478Z,2.77
2022-11-19T15:48:23.967Z,2.93
2022-11-19T15:50:51.495Z,2.96
2022-11-19T15:53:23.721Z,2.95
2022-11-19T15:56:01.259Z,2.90
2022-11-19T15:58:42.564Z,2.81
2022-11-19T16:01:14.601Z,2.81
2022-11-19T16:03:41.374Z,2.85
2022-11-19T16:06:20.196Z,2.87
2022-11-19T16:08:51.364Z,2.94
2022-11-19T16:11:39.053Z,2.95
2022-11-19T16:14:49.922Z,2.95
2022-11-19T16:17:39.926Z,2.90
2022-11-19T16:20:09.721Z,2.94
2022-11-19T16:22:48.302Z,2.89
2022-11-19T16:25:35.892Z,2.98
2022-11-19T16:28:14.925Z,2.83
2022-11-19T16:31:02.997Z,2.83
2022-11-19T16:33:31.164Z,2.69
2022-11-19T16:36:11.011Z,2.66
2022-11-19T16:38:40.723Z,2.55
2022-11-19T16:41:30.900Z,2.60
2022-11-19T16:43:57.807Z,2.58
2022-11-19T16:46:29.672Z,2.53
2022-11-19T16:48:59.052Z,2.53
2022-11-19T16:51:36.696Z,2.63
2022-11-19T16:54:05.982Z,2.66
2022-11-19T16:56:35.733Z,2.56
2022-11-19T16:59:04.568Z,2.53
2022-11-19T17:01:32.390Z,2.58
2022-11-19T17:04:07.358Z,2.72
2022-11-19T17:06:37.049Z,2.55
2022-11-19T17:09:05.695Z,2.48
2022-11-19T17:12:20.129Z,2.66
2022-11-19T17:14:50.136Z,2.66
2022-11-19T17:17:41.091Z,2.65
2022-11-19T17:20:30.495Z,2.51
2022-11-19T17:22:57.667Z,2.49
2022-11-19T17:25:24.667Z,2.52
2022-11-19T17:27:55.899Z,2.49
2022-11-19T17:30:34.148Z,2.52
2022-11-19T17:33:04.887Z,2.57
2022-11-19T17:35:40.338Z,2.41
2022-11-19T17:38:15.591Z,2.37
2022-11-19T17:40:47.753Z,2.45
2022-11-19T17:43:34.983Z,2.49
2022-11-19T17:46:01.517Z,2.39
2022-11-19T17:48:28.802Z,2.43
2022-11-19T17:50:55.548Z,2.36
2022-11-19T17:53:23.443Z,2.45
2022-11-19T17:55:53.840Z,2.37
2022-11-19T17:58:20.358Z,2.33
2022-11-19T18:00:47.536Z,2.24
2022-11-19T18:03:14.819Z,2.27
2022-11-19T18:05:49.440Z,2.26
2022-11-19T18:08:16.705Z,2.32
2022-11-19T18:10:46.741Z,2.34
2022-11-19T18:13:18.786Z,2.38
2022-11-19T18:15:45.311Z,2.47
2022-11-19T18:18:11.660Z,2.41
2022-11-19T18:20:38.231Z,2.30
2022-11-19T18:23:04.782Z,2.31
2022-11-19T18:25:31.378Z,2.35
2022-11-19T18:27:57.889Z,2.29
2022-11-19T18:30:24.448Z,2.30
2022-11-19T18:32:50.827Z,2.34
2022-11-19T18:35:19.616Z,2.39
2022-11-19T18:37:46.573Z,2.46
2022-11-19T18:40:14.488Z,2.50
2022-11-19T18:43:00.324Z,2.51
2022-11-19T18:45:27.095Z,2.44
2022-11-19T18:47:53.519Z,2.47
2022-11-19T18:50:20.357Z,2.46
2022-11-19T18:52:46.864Z,2.41
2022-11-19T18:55:13.731Z,2.42
2022-11-19T18:57:40.207Z,2.49
2022-11-19T19:00:07.572Z,2.51
2022-11-19T19:02:35.849Z,2.40
2022-11-19T19:05:03.303Z,2.37
2022-11-19T19:07:29.860Z,2.40
2022-11-19T19:09:58.538Z,2.36
2022-11-19T19:12:24.992Z,2.30
2022-11-19T19:14:51.887Z,2.34
2022-11-19T19:17:18.872Z,2.30
2022-11-19T19:19:45.521Z,2.20
2022-11-19T19:22:11.969Z,2.37
2022-11-19T19:24:38.955Z,2.18
2022-11-19T19:27:05.467Z,2.09
2022-11-19T19:29:32.558Z,2.10
2022-11-19T19:31:59.249Z,2.04
2022-11-19T19:34:26.142Z,2.15
2022-11-19T19:36:53.581Z,2.06
2022-11-19T19:39:21.902Z,2.03
2022-11-19T19:41:49.164Z,2.06
2022-11-19T19:44:16.596Z,2.09
2022-11-19T19:46:43.121Z,2.00
2022-11-19T19:49:09.573Z,1.91
2022-11-19T19:51:36.399Z,2.06
2022-11-19T19:54:03.031Z,2.08
2022-11-19T19:56:31.342Z,1.98
2022-11-19T19:58:59.119Z,1.97
2022-11-19T20:01:28.632Z,2.01
2022-11-19T20:04:02.845Z,2.06
2022-11-19T20:06:29.859Z,2.06
2022-11-19T20:08:56.712Z,2.13
2022-11-19T20:11:25.189Z,2.03
2022-11-19T20:13:53.237Z,1.99
2022-11-19T20:16:22.532Z,2.03
2022-11-19T20:18:50.812Z,2.05
2022-11-19T20:21:29.357Z,2.09
2022-11-19T20:23:55.882Z,2.10
2022-11-19T20:26:25.287Z,2.12
2022-11-19T20:28:56.728Z,2.14
2022-11-19T20:31:25.244Z,2.11
2022-11-19T20:33:55.213Z,2.11
2022-11-19T20:36:24.398Z,2.05
2022-11-19T20:38:51.206Z,2.06
2022-11-19T20:41:38.217Z,2.10
2022-11-19T20:44:21.685Z,2.02
2022-11-19T20:47:03.215Z,2.07
2022-11-19T20:49:32.621Z,2.17
2022-11-19T20:51:59.513Z,2.10
2022-11-19T20:54:26.662Z,2.06
2022-11-19T20:56:54.228Z,2.03
2022-11-19T20:59:22.292Z,2.06
2022-11-19T21:01:50.417Z,2.07
2022-11-19T21:04:17.851Z,2.00
2022-11-19T21:06:44.692Z,1.93
2022-11-19T21:09:11.187Z,1.90
2022-11-19T21:11:37.814Z,1.91
2022-11-19T21:14:04.544Z,1.88
2022-11-19T21:16:32.734Z,2.01
2022-11-19T21:18:59.620Z,1.91
2022-11-19T21:21:26.641Z,1.92
2022-11-19T21:23:54.180Z,1.92
2022-11-19T21:26:23.001Z,1.92
2022-11-19T21:28:52.170Z,1.90
2022-11-19T21:31:21.398Z,1.91
2022-11-19T21:33:48.010Z,2.02
2022-11-19T21:36:14.927Z,1.90
2022-11-19T21:38:41.376Z,1.82
2022-11-19T21:41:08.049Z,1.87
2022-11-19T21:43:35.210Z,1.91
2022-11-19T21:46:01.872Z,1.81
2022-11-19T21:48:28.440Z,1.90
2022-11-19T21:50:55.012Z,1.85
2022-11-19T21:53:21.914Z,1.92
2022-11-19T21:55:49.235Z,1.82
2022-11-19T21:58:16.426Z,1.82
2022-11-19T22:00:44.156Z,1.84
2022-11-19T22:03:10.804Z,1.78
2022-11-19T22:05:37.224Z,1.79
2022-11-19T22:08:03.900Z,1.75
2022-11-19T22:10:30.433Z,1.78
2022-11-19T22:13:00.015Z,1.87
2022-11-19T22:15:27.044Z,1.96
2022-11-19T22:17:53.816Z,1.86
2022-11-19T22:20:20.347Z,1.83
2022-11-19T22:22:46.963Z,1.72
2022-11-19T22:25:14.039Z,1.71
2022-11-19T22:27:41.939Z,1.71
2022-11-19T22:30:10.024Z,1.72
2022-11-19T22:32:37.696Z,1.75
2022-11-19T22:35:05.203Z,1.75
2022-11-19T22:37:32.021Z,1.85
2022-11-19T22:39:58.459Z,1.83
2022-11-19T22:42:25.247Z,1.76
2022-11-19T22:44:51.829Z,1.77
2022-11-19T22:47:18.197Z,1.79
2022-11-19T22:49:44.862Z,1.80
2022-11-19T22:52:11.374Z,1.85
2022-11-19T22:54:41.586Z,1.80
2022-11-19T22:57:08.712Z,1.77
2022-11-19T22:59:35.979Z,1.73
2022-11-19T23:02:02.480Z,1.73
2022-11-19T23:04:29.223Z,1.64
2022-11-19T23:06:55.863Z,1.57
2022-11-19T23:09:22.667Z,1.47
2022-11-19T23:12:07.848Z,1.54
2022-11-19T23:14:34.231Z,1.53
2022-11-19T23:17:00.697Z,1.50
2022-11-19T23:19:27.178Z,1.42
2022-11-19T23:21:53.618Z,1.41
2022-11-19T23:24:20.279Z,1.38
2022-11-19T23:26:46.675Z,1.44
2022-11-19T23:29:13.348Z,1.45
2022-11-19T23:31:40.391Z,1.33
2022-11-19T23:34:08.123Z,1.41
2022-11-19T23:36:37.717Z,1.45
2022-11-19T23:39:05.574Z,1.37
2022-11-19T23:41:33.433Z,1.40
2022-11-19T23:44:00.674Z,1.45
2022-11-19T23:46:32.743Z,1.52
2022-11-19T23:49:01.284Z,1.68
2022-11-19T23:51:33.846Z,1.59
2022-11-19T23:54:01.110Z,1.73
2022-11-19T23:56:29.738Z,1.62
2022-11-19T23:58:56.711Z,1.61
